Williams Lake Airport
CYWL : now visible

Airfield :











YOU CAN JOIN US ON...

 
LOGIN :

Register | Disclaimer

   EN    FR    IT 

 









Legend :    VFR   Marginal VFR   IFR   Intensive IFR   Very Intensive IFR
Visi :
Ceiling :
>= 8 km
>= 3000ft
5 to 8 km
1000 to 3000 ft
1500m to 5 km
500 to 1000 ft
800 to 1500m
200 to 500 ft
< 800m
< 200 ft
Symbols :   Thunderstorms  Fog  Heavy snow  Heavy precipitations  Wind > 20 kt






- Airport Elevation : 3085 ft
- IATA code : YWL


CYWL - Williams Lake

CURRENT METAR :
  • 080707Z 31006KT 8SM OVC004 M09/M10 A2992 RMK SC8 SLP187

EXPIRED METARs :
  • 080600Z 30006KT 8SM OVC005 M08/M10 A2991 RMK SC8 SLP184
  • 080500Z 30008KT 8SM OVC008 M08/M09 A2990 RMK SC8 SLP179

TAF TAF CYWL
Valid from the 08 at 07:00 until the 08 at 19:00 UTC


080638Z 0807/0819 30005KT P6SM OVC008
TEMPO 0807/0810 2SM -SN BR BKN005
BECMG 0807/0809 VRB03KT
FM081000 VRB03KT 5SM BR OVC008
TEMPO 0810/0816 1SM BR OVC004
FM081600 VRB03KT P6SM OVC010
TEMPO 0816/0819 3SM BR OVC009 RMK NXT FCST BY 081300Z



MET'MAP, your aeronautical weather chart ! - Copyright ORBIFLY December 2007 - Disclaimer

ORBIFLY MET'MAP TEAM :

Programming & Development : Alexandra Zaïnal
Concept & original design : Baudouin d'Aumeries
Assistance for programming : Marc-Olivier Méhu
Technical & hardware support : Manuel Goepfert

Contact : metmap@orbifly.com




SOURCES & CREDITS :

   NOAA       Earth
Advisory